createdAt,value
2023-02-12T00:01:24.331Z,101610.53
2023-02-12T00:03:52.358Z,101604.47
2023-02-12T00:06:20.443Z,101596.16
2023-02-12T00:08:50.358Z,101600.44
2023-02-12T00:11:20.522Z,101593.59
2023-02-12T00:13:48.680Z,101580.91
2023-02-12T00:16:19.388Z,101584.38
2023-02-12T00:18:47.658Z,101593.72
2023-02-12T00:21:15.166Z,101598.88
2023-02-12T00:23:43.122Z,101605.66
2023-02-12T00:26:13.330Z,101597.09
2023-02-12T00:28:41.388Z,101589.25
2023-02-12T00:31:12.070Z,101592.53
2023-02-12T00:33:42.068Z,101591.19
2023-02-12T00:36:14.223Z,101574.41
2023-02-12T00:38:42.579Z,101568.91
2023-02-12T00:41:10.627Z,101567.50
2023-02-12T00:43:38.582Z,101586.72
2023-02-12T00:46:07.297Z,101588.13
2023-02-12T00:48:36.483Z,101589.41
2023-02-12T00:51:06.599Z,101587.19
2023-02-12T00:53:36.016Z,101569.41
2023-02-12T00:56:04.228Z,101584.03
2023-02-12T00:58:32.265Z,101576.03
2023-02-12T01:01:00.047Z,101573.88
2023-02-12T01:03:28.272Z,101573.78
2023-02-12T01:05:56.332Z,101571.66
2023-02-12T01:08:26.038Z,101577.16
2023-02-12T01:10:58.689Z,101584.75
2023-02-12T01:13:34.991Z,101581.16
2023-02-12T01:16:06.223Z,101573.31
2023-02-12T01:18:34.993Z,101577.63
2023-02-12T01:21:09.850Z,101573.13
2023-02-12T01:23:39.519Z,101567.81
2023-02-12T01:26:07.290Z,101561.84
2023-02-12T01:28:35.505Z,101578.06
2023-02-12T01:31:09.372Z,101570.22
2023-02-12T01:33:37.308Z,101576.22
2023-02-12T01:36:09.665Z,101570.97
2023-02-12T01:38:40.137Z,101571.75
2023-02-12T01:41:10.570Z,101568.53
2023-02-12T01:43:38.248Z,101578.25
2023-02-12T01:46:07.376Z,101563.78
2023-02-12T01:48:38.986Z,101570.63
2023-02-12T01:51:09.486Z,101579.38
2023-02-12T01:53:43.120Z,101563.88
2023-02-12T01:56:10.858Z,101562.34
2023-02-12T01:58:41.656Z,101569.47
2023-02-12T02:01:13.812Z,101557.72
2023-02-12T02:03:45.383Z,101559.00
2023-02-12T02:06:16.639Z,101558.47
2023-02-12T02:08:47.001Z,101569.19
2023-02-12T02:11:14.883Z,101571.31
2023-02-12T02:13:45.917Z,101568.19
2023-02-12T02:16:20.850Z,101560.88
2023-02-12T02:18:53.814Z,101560.28
2023-02-12T02:21:46.015Z,101558.94
2023-02-12T02:24:45.740Z,101558.16
2023-02-12T02:27:21.127Z,101569.59
2023-02-12T02:30:13.622Z,101561.13
2023-02-12T02:32:49.101Z,101562.22
2023-02-12T02:35:25.120Z,101567.34
2023-02-12T02:38:06.136Z,101564.84
2023-02-12T02:40:42.587Z,101570.94
2023-02-12T02:43:16.845Z,101569.34
2023-02-12T02:45:51.307Z,101570.16
2023-02-12T02:48:24.091Z,101575.19
2023-02-12T02:50:56.079Z,101567.50
2023-02-12T02:53:29.904Z,101570.13
2023-02-12T02:56:00.280Z,101567.56
2023-02-12T02:58:35.356Z,101572.50
2023-02-12T03:01:09.725Z,101568.25
2023-02-12T03:03:45.897Z,101570.84
2023-02-12T03:06:19.632Z,101567.34
2023-02-12T03:08:50.921Z,101569.19
2023-02-12T03:11:24.096Z,101578.75
2023-02-12T03:13:57.604Z,101584.78
2023-02-12T03:16:31.804Z,101581.38
2023-02-12T03:19:06.811Z,101585.75
2023-02-12T03:21:43.868Z,101568.44
2023-02-12T03:24:16.874Z,101585.22
2023-02-12T03:26:49.550Z,101574.16
2023-02-12T03:29:17.482Z,101566.53
2023-02-12T03:31:58.805Z,101564.84
2023-02-12T03:34:34.578Z,101568.19
2023-02-12T03:37:08.921Z,101569.91
2023-02-12T03:39:50.122Z,101569.84
2023-02-12T03:42:27.440Z,101563.75
2023-02-12T03:44:59.702Z,101573.25
2023-02-12T03:47:39.334Z,101561.38
2023-02-12T03:50:12.648Z,101566.59
2023-02-12T03:52:41.697Z,101565.06
2023-02-12T03:55:10.631Z,101562.63
2023-02-12T03:57:43.073Z,101567.91
2023-02-12T04:00:13.811Z,101569.69
2023-02-12T04:02:43.435Z,101572.28
2023-02-12T04:05:18.032Z,101568.69
2023-02-12T04:07:46.006Z,101576.47
2023-02-12T04:10:14.109Z,101579.97
2023-02-12T04:12:52.418Z,101575.75
2023-02-12T04:15:52.470Z,101571.34
2023-02-12T04:18:30.306Z,101570.41
2023-02-12T04:21:06.890Z,101575.41
2023-02-12T04:23:47.483Z,101573.84
2023-02-12T04:26:24.403Z,101580.00
2023-02-12T04:29:07.933Z,101576.72
2023-02-12T04:31:46.276Z,101589.66
2023-02-12T04:34:21.213Z,101588.78
2023-02-12T04:36:56.798Z,101591.44
2023-02-12T04:39:27.555Z,101603.72
2023-02-12T04:41:59.093Z,101606.31
2023-02-12T04:44:29.494Z,101602.00
2023-02-12T04:46:57.677Z,101589.66
2023-02-12T04:49:27.119Z,101606.16
2023-02-12T04:51:55.062Z,101608.69
2023-02-12T04:54:23.727Z,101605.19
2023-02-12T04:56:51.918Z,101592.00
2023-02-12T04:59:19.757Z,101605.16
2023-02-12T05:01:47.735Z,101608.59
2023-02-12T05:04:16.283Z,101605.16
2023-02-12T05:06:46.139Z,101616.31
2023-02-12T05:09:16.146Z,101618.09
2023-02-12T05:11:45.228Z,101620.03
2023-02-12T05:14:13.341Z,101602.94
2023-02-12T05:16:41.407Z,101615.31
2023-02-12T05:19:10.532Z,101619.03
2023-02-12T05:21:39.527Z,101620.13
2023-02-12T05:24:09.276Z,101632.47
2023-02-12T05:26:37.204Z,101631.78
2023-02-12T05:29:04.917Z,101637.19
2023-02-12T05:31:33.597Z,101634.88
2023-02-12T05:34:01.426Z,101635.19
2023-02-12T05:36:29.538Z,101650.13
2023-02-12T05:38:59.091Z,101631.22
2023-02-12T05:41:28.310Z,101647.22
2023-02-12T05:43:56.181Z,101646.63
2023-02-12T05:46:24.006Z,101645.97
2023-02-12T05:48:51.633Z,101655.81
2023-02-12T05:51:22.031Z,101657.06
2023-02-12T05:53:50.645Z,101659.16
2023-02-12T05:56:21.035Z,101656.88
2023-02-12T05:58:53.967Z,101659.75
2023-02-12T06:01:23.577Z,101660.81
2023-02-12T06:03:51.150Z,101663.50
2023-02-12T06:06:19.361Z,101667.25
2023-02-12T06:08:48.746Z,101664.03
2023-02-12T06:11:17.304Z,101669.38
2023-02-12T06:13:45.380Z,101669.84
2023-02-12T06:16:23.541Z,101665.03
2023-02-12T06:18:51.799Z,101665.28
2023-02-12T06:21:22.866Z,101669.75
2023-02-12T06:23:50.710Z,101676.91
2023-02-12T06:26:20.140Z,101673.56
2023-02-12T06:28:48.524Z,101670.25
2023-02-12T06:31:21.414Z,101679.22
2023-02-12T06:33:49.550Z,101682.22
2023-02-12T06:36:17.856Z,101673.78
2023-02-12T06:38:45.802Z,101676.38
2023-02-12T06:41:14.482Z,101674.69
2023-02-12T06:43:42.817Z,101677.63
2023-02-12T06:46:11.185Z,101669.44
2023-02-12T06:48:40.897Z,101664.84
2023-02-12T06:51:11.376Z,101683.53
2023-02-12T06:53:39.762Z,101682.75
2023-02-12T06:56:09.048Z,101678.47
2023-02-12T06:58:37.222Z,101689.03
2023-02-12T07:01:12.017Z,101680.41
2023-02-12T07:03:42.260Z,101694.47
2023-02-12T07:06:10.801Z,101683.38
2023-02-12T07:08:39.468Z,101689.69
2023-02-12T07:11:07.666Z,101688.94
2023-02-12T07:13:36.019Z,101687.28
2023-02-12T07:16:05.219Z,101696.91
2023-02-12T07:18:33.836Z,101700.56
2023-02-12T07:21:03.441Z,101703.16
2023-02-12T07:23:32.060Z,101710.00
2023-02-12T07:26:02.040Z,101712.72
2023-02-12T07:28:32.611Z,101721.47
2023-02-12T07:31:06.139Z,101712.94
2023-02-12T07:33:34.181Z,101718.31
2023-02-12T07:36:04.031Z,101720.38
2023-02-12T07:38:32.090Z,101716.38
2023-02-12T07:41:10.458Z,101711.66
2023-02-12T07:43:39.500Z,101719.09
2023-02-12T07:46:09.353Z,101713.19
2023-02-12T07:48:36.926Z,101706.44
2023-02-12T07:51:09.246Z,101706.72
2023-02-12T07:53:37.214Z,101702.44
2023-02-12T07:56:06.716Z,101691.00
2023-02-12T07:58:35.215Z,101709.16
2023-02-12T08:01:24.786Z,101712.03
2023-02-12T08:03:52.797Z,101707.63
2023-02-12T08:06:23.834Z,101722.19
2023-02-12T08:08:52.454Z,101730.09
2023-02-12T08:11:21.721Z,101716.59
2023-02-12T08:13:49.309Z,101728.00
2023-02-12T08:16:19.639Z,101726.03
2023-02-12T08:18:48.240Z,101733.66
2023-02-12T08:21:17.446Z,101737.84
2023-02-12T08:23:47.488Z,101750.94
2023-02-12T08:26:18.460Z,101756.06
2023-02-12T08:28:49.726Z,101751.59
2023-02-12T08:31:20.022Z,101755.09
2023-02-12T08:33:48.682Z,101764.88
2023-02-12T08:36:19.337Z,101747.63
2023-02-12T08:38:48.648Z,101752.03
2023-02-12T08:41:20.550Z,101773.81
2023-02-12T08:43:50.061Z,101751.16
2023-02-12T08:46:20.066Z,101757.47
2023-02-12T08:48:48.076Z,101761.13
2023-02-12T08:51:18.475Z,101763.75
2023-02-12T08:53:51.384Z,101772.50
2023-02-12T08:56:26.214Z,101774.94
2023-02-12T08:58:54.114Z,101771.34
2023-02-12T09:01:23.669Z,101782.59
2023-02-12T09:03:52.296Z,101789.50
2023-02-12T09:06:22.240Z,101801.63
2023-02-12T09:08:52.913Z,101796.25
2023-02-12T09:11:23.276Z,101798.03
2023-02-12T09:13:51.108Z,101801.44
2023-02-12T09:16:18.857Z,101801.44
2023-02-12T09:18:47.586Z,101803.06
2023-02-12T09:21:16.352Z,101809.03
2023-02-12T09:23:45.153Z,101810.75
2023-02-12T09:26:16.595Z,101819.41
2023-02-12T09:28:50.539Z,101821.16
2023-02-12T09:31:19.932Z,101816.91
2023-02-12T09:33:51.143Z,101817.81
2023-02-12T09:36:20.638Z,101823.19
2023-02-12T09:38:48.535Z,101822.28
2023-02-12T09:41:33.305Z,101820.41
2023-02-12T09:44:07.329Z,101828.22
2023-02-12T09:46:41.646Z,101829.78
2023-02-12T09:49:14.914Z,101825.50
2023-02-12T09:51:45.786Z,101828.19
2023-02-12T09:54:16.353Z,101828.28
2023-02-12T09:56:50.169Z,101836.22
2023-02-12T09:59:29.193Z,101837.06
2023-02-12T10:01:58.247Z,101843.19
2023-02-12T10:04:26.951Z,101829.34
2023-02-12T10:07:03.587Z,101821.44
2023-02-12T10:09:49.558Z,101824.13
2023-02-12T10:12:27.998Z,101825.31
2023-02-12T10:15:17.010Z,101819.63
2023-02-12T10:17:52.147Z,101835.28
2023-02-12T10:20:40.265Z,101842.88
2023-02-12T10:23:29.159Z,101850.56
2023-02-12T10:25:59.916Z,101852.97
2023-02-12T10:28:35.054Z,101859.03
2023-02-12T10:31:08.866Z,101853.00
2023-02-12T10:33:41.388Z,101852.34
2023-02-12T10:36:25.131Z,101861.16
2023-02-12T10:39:02.536Z,101851.66
2023-02-12T10:41:32.825Z,101864.78
2023-02-12T10:44:02.204Z,101867.31
2023-02-12T10:46:31.054Z,101873.19
2023-02-12T10:49:00.647Z,101871.31
2023-02-12T10:51:43.751Z,101879.09
2023-02-12T10:54:35.140Z,101887.59
2023-02-12T10:57:14.871Z,101898.63
2023-02-12T10:59:45.781Z,101887.31
2023-02-12T11:02:22.199Z,101902.09
2023-02-12T11:04:51.003Z,101911.72
2023-02-12T11:07:18.764Z,101898.78
2023-02-12T11:09:48.696Z,101913.44
2023-02-12T11:12:28.810Z,101926.56
2023-02-12T11:14:59.963Z,101923.94
2023-02-12T11:17:33.556Z,101917.94
2023-02-12T11:20:20.661Z,101926.66
2023-02-12T11:22:56.888Z,101929.94
2023-02-12T11:25:26.590Z,101943.69
2023-02-12T11:28:15.465Z,101951.50
2023-02-12T11:30:56.416Z,101953.22
2023-02-12T11:33:32.422Z,101941.84
2023-02-12T11:36:06.744Z,101949.56
2023-02-12T11:38:37.754Z,101945.38
2023-02-12T11:41:21.582Z,101946.22
2023-02-12T11:43:51.982Z,101954.13
2023-02-12T11:46:25.069Z,101958.25
2023-02-12T11:48:54.947Z,101954.63
2023-02-12T11:51:27.198Z,101959.06
2023-02-12T11:53:58.643Z,101957.31
2023-02-12T11:56:41.562Z,101970.03
2023-02-12T11:59:24.836Z,101972.97
2023-02-12T12:01:57.478Z,101967.25
2023-02-12T12:04:27.467Z,101966.09
2023-02-12T12:07:00.760Z,101956.75
2023-02-12T12:09:37.444Z,101957.41
2023-02-12T12:12:13.660Z,101975.19
2023-02-12T12:14:46.124Z,101960.59
2023-02-12T12:17:18.297Z,101969.13
2023-02-12T12:19:52.989Z,101954.25
2023-02-12T12:22:50.690Z,101968.16
2023-02-12T12:25:25.017Z,101973.22
2023-02-12T12:28:04.620Z,101973.25
2023-02-12T12:30:51.586Z,101969.81
2023-02-12T12:33:31.034Z,101968.03
2023-02-12T12:36:12.724Z,101971.44
2023-02-12T12:38:50.466Z,101971.63
2023-02-12T12:41:27.404Z,101977.00
2023-02-12T12:44:12.537Z,101978.84
2023-02-12T12:47:01.739Z,101983.91
2023-02-12T12:49:47.680Z,101988.19
2023-02-12T12:52:58.242Z,101988.09
2023-02-12T12:55:52.435Z,101996.72
2023-02-12T12:58:32.325Z,102000.19
2023-02-12T13:01:20.816Z,102008.84
2023-02-12T13:04:14.408Z,102005.38
2023-02-12T13:06:56.335Z,102010.63
2023-02-12T13:09:46.187Z,102020.00
2023-02-12T13:12:39.818Z,102024.84
2023-02-12T13:15:19.283Z,102025.72
2023-02-12T13:17:52.027Z,102026.69
2023-02-12T13:20:29.255Z,102032.78
2023-02-12T13:23:05.073Z,102028.38
2023-02-12T13:25:39.578Z,102032.66
2023-02-12T13:28:14.569Z,102028.31
2023-02-12T13:30:48.533Z,102017.75
2023-02-12T13:33:20.816Z,102024.53
2023-02-12T13:35:52.513Z,102034.97
2023-02-12T13:38:27.932Z,102032.22
2023-02-12T13:41:01.267Z,102053.13
2023-02-12T13:43:44.148Z,102053.13
2023-02-12T13:46:17.522Z,102059.03
2023-02-12T13:48:56.532Z,102054.69
2023-02-12T13:51:36.333Z,102050.28
2023-02-12T13:54:18.677Z,102057.22
2023-02-12T13:56:49.687Z,102063.09
2023-02-12T13:59:40.063Z,102069.09
2023-02-12T14:02:43.020Z,102074.25
2023-02-12T14:05:31.898Z,102073.28
2023-02-12T14:08:03.203Z,102088.91
2023-02-12T14:10:36.041Z,102091.41
2023-02-12T14:13:19.032Z,102085.97
2023-02-12T14:15:50.963Z,102110.22
2023-02-12T14:18:30.719Z,102093.75
2023-02-12T14:21:41.457Z,102094.44
2023-02-12T14:24:42.917Z,102108.94
2023-02-12T14:27:31.533Z,102109.72
2023-02-12T14:30:05.389Z,102112.13
2023-02-12T14:33:11.623Z,102118.31
2023-02-12T14:35:41.449Z,102119.81
2023-02-12T14:39:00.094Z,102126.69
2023-02-12T14:41:34.176Z,102122.94
2023-02-12T14:44:42.421Z,102134.09
2023-02-12T14:47:42.698Z,102132.16
2023-02-12T14:50:20.520Z,102140.41
2023-02-12T14:52:53.277Z,102143.72
2023-02-12T14:55:25.321Z,102156.72
2023-02-12T14:58:03.399Z,102159.09
2023-02-12T15:00:39.786Z,102153.00
2023-02-12T15:03:17.722Z,102158.94
2023-02-12T15:05:58.147Z,102180.44
2023-02-12T15:08:35.824Z,102179.31
2023-02-12T15:11:17.111Z,102179.06
2023-02-12T15:13:49.456Z,102181.31
2023-02-12T15:16:25.123Z,102181.09
2023-02-12T15:18:59.553Z,102196.47
2023-02-12T15:21:32.374Z,102191.56
2023-02-12T15:24:06.238Z,102202.41
2023-02-12T15:26:36.970Z,102206.31
2023-02-12T15:29:06.977Z,102207.06
2023-02-12T15:31:35.574Z,102202.75
2023-02-12T15:34:05.073Z,102209.72
2023-02-12T15:36:36.119Z,102228.03
2023-02-12T15:39:06.774Z,102236.41
2023-02-12T15:41:37.485Z,102239.88
2023-02-12T15:44:23.889Z,102234.34
2023-02-12T15:47:13.186Z,102244.38
2023-02-12T15:49:43.042Z,102234.63
2023-02-12T15:52:19.130Z,102243.09
2023-02-12T15:54:48.671Z,102250.88
2023-02-12T15:57:22.347Z,102250.66
2023-02-12T15:59:51.547Z,102263.41
2023-02-12T16:02:24.983Z,102271.88
2023-02-12T16:04:53.229Z,102275.03
2023-02-12T16:07:25.293Z,102266.84
2023-02-12T16:09:54.300Z,102277.41
2023-02-12T16:12:28.885Z,102291.75
2023-02-12T16:14:57.804Z,102295.06
2023-02-12T16:17:28.686Z,102291.09
2023-02-12T16:19:58.558Z,102294.66
2023-02-12T16:22:33.279Z,102291.91
2023-02-12T16:25:01.811Z,102303.44
2023-02-12T16:27:32.184Z,102316.78
2023-02-12T16:30:01.999Z,102316.53
2023-02-12T16:32:34.990Z,102330.97
2023-02-12T16:35:07.178Z,102336.47
2023-02-12T16:37:45.963Z,102345.03
2023-02-12T16:40:27.156Z,102349.53
2023-02-12T16:43:00.254Z,102350.72
2023-02-12T16:45:44.475Z,102363.50
2023-02-12T16:48:36.856Z,102371.63
2023-02-12T16:51:04.931Z,102369.03
2023-02-12T16:53:38.234Z,102388.34
2023-02-12T16:56:06.480Z,102386.31
2023-02-12T16:58:34.738Z,102387.06
2023-02-12T17:01:04.037Z,102387.75
2023-02-12T17:03:33.691Z,102385.47
2023-02-12T17:06:01.614Z,102405.41
2023-02-12T17:08:29.412Z,102400.88
2023-02-12T17:10:58.518Z,102413.19
2023-02-12T17:13:26.415Z,102404.50
2023-02-12T17:15:56.385Z,102414.88
2023-02-12T17:18:25.408Z,102420.72
2023-02-12T17:20:56.192Z,102423.44
2023-02-12T17:23:24.565Z,102420.63
2023-02-12T17:25:53.098Z,102427.25
2023-02-12T17:28:22.317Z,102431.75
2023-02-12T17:30:50.678Z,102435.78
2023-02-12T17:33:18.874Z,102431.50
2023-02-12T17:35:46.652Z,102435.84
2023-02-12T17:38:14.255Z,102434.97
2023-02-12T17:40:42.040Z,102443.34
2023-02-12T17:43:10.170Z,102443.78
2023-02-12T17:45:42.680Z,102445.75
2023-02-12T17:48:11.577Z,102441.09
2023-02-12T17:50:39.796Z,102436.34
2023-02-12T17:53:08.551Z,102440.25
2023-02-12T17:55:38.889Z,102449.69
2023-02-12T17:58:07.540Z,102448.00
2023-02-12T18:00:35.369Z,102442.56
2023-02-12T18:03:06.149Z,102454.25
2023-02-12T18:05:33.704Z,102453.09
2023-02-12T18:08:01.410Z,102461.44
2023-02-12T18:10:30.884Z,102466.16
2023-02-12T18:12:58.700Z,102466.16
2023-02-12T18:15:26.474Z,102471.94
2023-02-12T18:17:55.462Z,102482.75
2023-02-12T18:20:24.379Z,102486.66
2023-02-12T18:22:52.598Z,102495.06
2023-02-12T18:25:20.299Z,102491.63
2023-02-12T18:27:48.939Z,102500.00
2023-02-12T18:30:16.963Z,102499.72
2023-02-12T18:32:44.702Z,102506.25
2023-02-12T18:35:12.329Z,102501.13
2023-02-12T18:37:44.019Z,102506.34
2023-02-12T18:40:12.276Z,102513.25
2023-02-12T18:42:39.840Z,102509.66
2023-02-12T18:45:08.427Z,102513.19
2023-02-12T18:47:36.631Z,102516.06
2023-02-12T18:50:04.912Z,102518.84
2023-02-12T18:52:32.843Z,102516.41
2023-02-12T18:55:01.904Z,102517.72
2023-02-12T18:57:29.672Z,102521.69
2023-02-12T18:59:57.688Z,102522.25
2023-02-12T19:02:25.604Z,102529.38
2023-02-12T19:04:54.105Z,102534.53
2023-02-12T19:07:21.800Z,102535.31
2023-02-12T19:09:49.747Z,102536.41
2023-02-12T19:12:18.797Z,102541.56
2023-02-12T19:14:46.633Z,102534.66
2023-02-12T19:17:14.239Z,102542.06
2023-02-12T19:19:41.902Z,102538.53
2023-02-12T19:22:09.627Z,102542.94
2023-02-12T19:24:46.619Z,102541.34
2023-02-12T19:27:15.955Z,102544.50
2023-02-12T19:29:45.126Z,102543.56
2023-02-12T19:32:14.343Z,102550.00
2023-02-12T19:34:42.430Z,102553.66
2023-02-12T19:37:11.686Z,102556.88
2023-02-12T19:39:40.409Z,102550.34
2023-02-12T19:42:08.284Z,102561.94
2023-02-12T19:44:36.087Z,102573.28
2023-02-12T19:47:05.235Z,102580.16
2023-02-12T19:49:34.152Z,102570.78
2023-02-12T19:52:01.804Z,102578.28
2023-02-12T19:54:29.568Z,102576.66
2023-02-12T19:56:57.222Z,102579.59
2023-02-12T19:59:26.356Z,102583.22
2023-02-12T20:01:54.629Z,102572.41
2023-02-12T20:04:24.705Z,102587.97
2023-02-12T20:06:52.717Z,102590.72
2023-02-12T20:09:21.498Z,102582.84
2023-02-12T20:11:50.098Z,102586.97
2023-02-12T20:14:18.076Z,102595.69
2023-02-12T20:16:45.618Z,102599.97
2023-02-12T20:19:19.068Z,102599.31
2023-02-12T20:21:49.922Z,102606.81
2023-02-12T20:24:17.489Z,102609.22
2023-02-12T20:26:45.525Z,102616.78
2023-02-12T20:29:13.388Z,102629.72
2023-02-12T20:31:43.905Z,102630.84
2023-02-12T20:34:13.978Z,102629.34
2023-02-12T20:36:44.958Z,102634.63
2023-02-12T20:39:16.534Z,102642.47
2023-02-12T20:41:45.621Z,102647.34
2023-02-12T20:44:18.095Z,102635.56
2023-02-12T20:46:46.496Z,102644.34
2023-02-12T20:49:15.813Z,102639.84
2023-02-12T20:51:44.381Z,102636.75
2023-02-12T20:54:13.630Z,102632.41
2023-02-12T20:56:42.541Z,102633.84
2023-02-12T20:59:11.009Z,102634.38
2023-02-12T21:01:40.984Z,102629.16
2023-02-12T21:04:10.580Z,102635.44
2023-02-12T21:06:39.332Z,102647.31
2023-02-12T21:09:07.247Z,102634.19
2023-02-12T21:11:36.801Z,102645.69
2023-02-12T21:14:20.882Z,102651.91
2023-02-12T21:16:50.829Z,102647.38
2023-02-12T21:19:19.029Z,102653.84
2023-02-12T21:21:47.040Z,102653.97
2023-02-12T21:24:17.618Z,102659.44
2023-02-12T21:26:46.742Z,102663.09
2023-02-12T21:29:17.767Z,102669.97
2023-02-12T21:31:47.520Z,102668.09
2023-02-12T21:34:18.914Z,102670.88
2023-02-12T21:36:48.260Z,102673.53
2023-02-12T21:39:17.878Z,102668.44
2023-02-12T21:41:46.795Z,102671.31
2023-02-12T21:44:17.302Z,102677.41
2023-02-12T21:46:45.997Z,102673.69
2023-02-12T21:49:17.881Z,102676.47
2023-02-12T21:51:47.819Z,102679.72
2023-02-12T21:54:15.890Z,102681.00
2023-02-12T21:56:45.413Z,102680.97
2023-02-12T21:59:15.381Z,102680.50
2023-02-12T22:01:47.494Z,102685.59
2023-02-12T22:04:19.132Z,102669.41
2023-02-12T22:06:50.259Z,102675.91
2023-02-12T22:09:19.552Z,102676.72
2023-02-12T22:11:47.737Z,102667.72
2023-02-12T22:14:18.042Z,102677.88
2023-02-12T22:16:47.273Z,102673.75
2023-02-12T22:19:15.292Z,102670.09
2023-02-12T22:21:43.910Z,102670.16
2023-02-12T22:24:13.881Z,102674.97
2023-02-12T22:26:41.595Z,102670.06
2023-02-12T22:29:11.436Z,102671.78
2023-02-12T22:31:42.475Z,102660.31
2023-02-12T22:34:12.986Z,102663.63
2023-02-12T22:36:41.247Z,102661.72
2023-02-12T22:39:10.304Z,102671.13
2023-02-12T22:41:38.143Z,102663.00
2023-02-12T22:44:05.988Z,102666.13
2023-02-12T22:46:33.878Z,102676.97
2023-02-12T22:49:03.135Z,102681.91
2023-02-12T22:51:32.540Z,102681.44
2023-02-12T22:54:02.420Z,102672.31
2023-02-12T22:56:30.342Z,102683.34
2023-02-12T22:59:00.549Z,102682.38
2023-02-12T23:01:29.413Z,102681.91
2023-02-12T23:03:57.340Z,102677.38
2023-02-12T23:06:28.720Z,102679.16
2023-02-12T23:09:00.608Z,102671.25
2023-02-12T23:11:29.972Z,102667.59
2023-02-12T23:13:58.125Z,102667.75
2023-02-12T23:16:26.493Z,102666.41
2023-02-12T23:18:55.508Z,102670.84
2023-02-12T23:21:23.070Z,102671.84
2023-02-12T23:23:52.390Z,102677.28
2023-02-12T23:26:20.980Z,102680.09
2023-02-12T23:28:48.757Z,102689.75
2023-02-12T23:31:17.010Z,102695.63
2023-02-12T23:33:45.386Z,102695.53
2023-02-12T23:36:13.136Z,102684.69
2023-02-12T23:38:40.840Z,102680.34
2023-02-12T23:41:10.077Z,102672.59
2023-02-12T23:43:37.582Z,102674.22
2023-02-12T23:46:06.054Z,102678.91
2023-02-12T23:48:34.340Z,102682.75
2023-02-12T23:51:02.001Z,102690.44
2023-02-12T23:53:30.194Z,102681.06
2023-02-12T23:55:58.035Z,102697.03
2023-02-12T23:58:27.579Z,102702.25
